sensor_id;sensor_type;location;lat;lon;timestamp;P1;durP1;ratioP1;P2;durP2;ratioP2
2874;SDS011;1445;52.600;13.328;2022-07-24T00:01:38;1.95;;;1.70;;
2874;SDS011;1445;52.600;13.328;2022-07-24T00:04:04;1.60;;;1.50;;
2874;SDS011;1445;52.600;13.328;2022-07-24T00:06:30;3.40;;;1.70;;
2874;SDS011;1445;52.600;13.328;2022-07-24T00:08:56;3.33;;;1.70;;
2874;SDS011;1445;52.600;13.328;2022-07-24T00:11:21;1.98;;;1.42;;
2874;SDS011;1445;52.600;13.328;2022-07-24T00:13:47;2.00;;;1.50;;
2874;SDS011;1445;52.600;13.328;2022-07-24T00:16:13;2.55;;;1.75;;
2874;SDS011;1445;52.600;13.328;2022-07-24T00:18:38;2.25;;;1.55;;
2874;SDS011;1445;52.600;13.328;2022-07-24T00:21:04;1.95;;;1.60;;
2874;SDS011;1445;52.600;13.328;2022-07-24T00:23:30;3.63;;;1.55;;
2874;SDS011;1445;52.600;13.328;2022-07-24T00:25:55;2.10;;;1.45;;
2874;SDS011;1445;52.600;13.328;2022-07-24T00:28:21;3.38;;;1.67;;
2874;SDS011;1445;52.600;13.328;2022-07-24T00:30:47;1.98;;;1.55;;
2874;SDS011;1445;52.600;13.328;2022-07-24T00:33:12;1.98;;;1.70;;
2874;SDS011;1445;52.600;13.328;2022-07-24T00:35:38;1.73;;;1.50;;
2874;SDS011;1445;52.600;13.328;2022-07-24T00:38:04;3.65;;;1.70;;
2874;SDS011;1445;52.600;13.328;2022-07-24T00:40:30;2.47;;;1.50;;
2874;SDS011;1445;52.600;13.328;2022-07-24T00:42:56;1.70;;;1.52;;
2874;SDS011;1445;52.600;13.328;2022-07-24T00:45:22;2.30;;;1.60;;
2874;SDS011;1445;52.600;13.328;2022-07-24T00:47:49;2.42;;;1.80;;
2874;SDS011;1445;52.600;13.328;2022-07-24T00:50:15;3.70;;;1.80;;
2874;SDS011;1445;52.600;13.328;2022-07-24T00:52:40;2.33;;;1.60;;
2874;SDS011;1445;52.600;13.328;2022-07-24T00:55:09;3.05;;;1.75;;
2874;SDS011;1445;52.600;13.328;2022-07-24T00:57:35;2.17;;;1.60;;
2874;SDS011;1445;52.600;13.328;2022-07-24T01:00:01;1.70;;;1.50;;
2874;SDS011;1445;52.600;13.328;2022-07-24T01:02:31;4.97;;;1.73;;
2874;SDS011;1445;52.600;13.328;2022-07-24T01:04:57;1.70;;;1.60;;
2874;SDS011;1445;52.600;13.328;2022-07-24T01:07:22;2.33;;;1.70;;
2874;SDS011;1445;52.600;13.328;2022-07-24T01:09:48;2.58;;;1.67;;
2874;SDS011;1445;52.600;13.328;2022-07-24T01:12:14;2.08;;;1.50;;
2874;SDS011;1445;52.600;13.328;2022-07-24T01:14:40;2.90;;;1.60;;
2874;SDS011;1445;52.600;13.328;2022-07-24T01:17:05;3.30;;;1.60;;
2874;SDS011;1445;52.600;13.328;2022-07-24T01:19:31;4.22;;;1.60;;
2874;SDS011;1445;52.600;13.328;2022-07-24T01:21:57;2.58;;;1.52;;
2874;SDS011;1445;52.600;13.328;2022-07-24T01:24:22;1.90;;;1.48;;
2874;SDS011;1445;52.600;13.328;2022-07-24T01:26:48;1.77;;;1.60;;
2874;SDS011;1445;52.600;13.328;2022-07-24T01:29:14;1.80;;;1.50;;
2874;SDS011;1445;52.600;13.328;2022-07-24T01:31:40;1.92;;;1.50;;
2874;SDS011;1445;52.600;13.328;2022-07-24T01:34:05;1.98;;;1.40;;
2874;SDS011;1445;52.600;13.328;2022-07-24T01:36:31;3.78;;;2.17;;
2874;SDS011;1445;52.600;13.328;2022-07-24T01:38:57;5.53;;;2.28;;
2874;SDS011;1445;52.600;13.328;2022-07-24T01:41:23;2.38;;;1.60;;
2874;SDS011;1445;52.600;13.328;2022-07-24T01:43:48;1.65;;;1.50;;
2874;SDS011;1445;52.600;13.328;2022-07-24T01:46:14;1.60;;;1.50;;
2874;SDS011;1445;52.600;13.328;2022-07-24T01:48:40;1.60;;;1.50;;
2874;SDS011;1445;52.600;13.328;2022-07-24T01:51:07;2.13;;;1.70;;
2874;SDS011;1445;52.600;13.328;2022-07-24T01:53:33;1.60;;;1.50;;
2874;SDS011;1445;52.600;13.328;2022-07-24T01:55:59;2.42;;;1.65;;
2874;SDS011;1445;52.600;13.328;2022-07-24T01:58:24;2.53;;;1.80;;
2874;SDS011;1445;52.600;13.328;2022-07-24T02:00:50;2.85;;;1.70;;
2874;SDS011;1445;52.600;13.328;2022-07-24T02:03:16;2.20;;;1.80;;
2874;SDS011;1445;52.600;13.328;2022-07-24T02:05:42;3.15;;;1.77;;
2874;SDS011;1445;52.600;13.328;2022-07-24T02:08:07;1.60;;;1.50;;
2874;SDS011;1445;52.600;13.328;2022-07-24T02:10:33;2.17;;;1.77;;
2874;SDS011;1445;52.600;13.328;2022-07-24T02:13:00;3.70;;;1.70;;
2874;SDS011;1445;52.600;13.328;2022-07-24T02:15:26;4.32;;;1.63;;
2874;SDS011;1445;52.600;13.328;2022-07-24T02:17:54;3.60;;;1.90;;
2874;SDS011;1445;52.600;13.328;2022-07-24T02:20:21;2.40;;;1.80;;
2874;SDS011;1445;52.600;13.328;2022-07-24T02:22:47;3.65;;;2.20;;
2874;SDS011;1445;52.600;13.328;2022-07-24T02:25:13;3.05;;;1.90;;
2874;SDS011;1445;52.600;13.328;2022-07-24T02:27:39;4.80;;;2.10;;
2874;SDS011;1445;52.600;13.328;2022-07-24T02:30:18;3.30;;;1.70;;
2874;SDS011;1445;52.600;13.328;2022-07-24T02:32:59;2.47;;;1.73;;
2874;SDS011;1445;52.600;13.328;2022-07-24T02:35:25;4.25;;;2.13;;
2874;SDS011;1445;52.600;13.328;2022-07-24T02:37:51;2.13;;;1.92;;
2874;SDS011;1445;52.600;13.328;2022-07-24T02:40:16;3.05;;;2.00;;
2874;SDS011;1445;52.600;13.328;2022-07-24T02:42:42;2.67;;;2.15;;
2874;SDS011;1445;52.600;13.328;2022-07-24T02:45:08;2.53;;;1.95;;
2874;SDS011;1445;52.600;13.328;2022-07-24T02:47:35;2.85;;;2.00;;
2874;SDS011;1445;52.600;13.328;2022-07-24T02:50:10;2.10;;;1.90;;
2874;SDS011;1445;52.600;13.328;2022-07-24T02:52:36;3.40;;;2.53;;
2874;SDS011;1445;52.600;13.328;2022-07-24T02:55:01;5.97;;;1.90;;
2874;SDS011;1445;52.600;13.328;2022-07-24T02:57:27;5.20;;;2.20;;
2874;SDS011;1445;52.600;13.328;2022-07-24T02:59:53;4.65;;;1.95;;
2874;SDS011;1445;52.600;13.328;2022-07-24T03:02:18;3.72;;;2.13;;
2874;SDS011;1445;52.600;13.328;2022-07-24T03:04:44;3.33;;;1.83;;
2874;SDS011;1445;52.600;13.328;2022-07-24T03:07:10;3.40;;;2.22;;
2874;SDS011;1445;52.600;13.328;2022-07-24T03:09:35;2.60;;;1.67;;
2874;SDS011;1445;52.600;13.328;2022-07-24T03:12:01;2.47;;;1.85;;
2874;SDS011;1445;52.600;13.328;2022-07-24T03:14:26;4.43;;;1.70;;
2874;SDS011;1445;52.600;13.328;2022-07-24T03:16:52;2.13;;;1.90;;
2874;SDS011;1445;52.600;13.328;2022-07-24T03:19:17;2.10;;;1.80;;
2874;SDS011;1445;52.600;13.328;2022-07-24T03:21:43;2.75;;;2.15;;
2874;SDS011;1445;52.600;13.328;2022-07-24T03:24:08;3.33;;;2.10;;
2874;SDS011;1445;52.600;13.328;2022-07-24T03:26:34;2.47;;;1.90;;
2874;SDS011;1445;52.600;13.328;2022-07-24T03:29:00;2.00;;;1.77;;
2874;SDS011;1445;52.600;13.328;2022-07-24T03:31:25;3.15;;;2.15;;
2874;SDS011;1445;52.600;13.328;2022-07-24T03:33:51;2.25;;;1.73;;
2874;SDS011;1445;52.600;13.328;2022-07-24T03:36:16;2.83;;;1.90;;
2874;SDS011;1445;52.600;13.328;2022-07-24T03:38:42;4.35;;;2.17;;
2874;SDS011;1445;52.600;13.328;2022-07-24T03:41:07;2.20;;;1.80;;
2874;SDS011;1445;52.600;13.328;2022-07-24T03:43:33;2.38;;;2.17;;
2874;SDS011;1445;52.600;13.328;2022-07-24T03:45:59;2.58;;;2.08;;
2874;SDS011;1445;52.600;13.328;2022-07-24T03:48:24;2.20;;;2.00;;
2874;SDS011;1445;52.600;13.328;2022-07-24T03:50:50;4.40;;;2.38;;
2874;SDS011;1445;52.600;13.328;2022-07-24T03:53:15;2.88;;;2.00;;
2874;SDS011;1445;52.600;13.328;2022-07-24T03:55:41;4.35;;;2.22;;
2874;SDS011;1445;52.600;13.328;2022-07-24T03:58:06;3.90;;;2.40;;
2874;SDS011;1445;52.600;13.328;2022-07-24T04:00:32;2.80;;;2.45;;
2874;SDS011;1445;52.600;13.328;2022-07-24T04:02:57;3.85;;;2.15;;
2874;SDS011;1445;52.600;13.328;2022-07-24T04:05:23;4.10;;;2.33;;
2874;SDS011;1445;52.600;13.328;2022-07-24T04:07:48;3.28;;;2.38;;
2874;SDS011;1445;52.600;13.328;2022-07-24T04:10:14;3.45;;;2.20;;
2874;SDS011;1445;52.600;13.328;2022-07-24T04:12:40;2.78;;;2.30;;
2874;SDS011;1445;52.600;13.328;2022-07-24T04:15:05;5.25;;;2.30;;
2874;SDS011;1445;52.600;13.328;2022-07-24T04:17:31;2.70;;;2.35;;
2874;SDS011;1445;52.600;13.328;2022-07-24T04:19:57;3.35;;;2.40;;
2874;SDS011;1445;52.600;13.328;2022-07-24T04:22:22;3.10;;;2.45;;
2874;SDS011;1445;52.600;13.328;2022-07-24T04:24:48;3.38;;;2.30;;
2874;SDS011;1445;52.600;13.328;2022-07-24T04:27:13;3.53;;;2.72;;
2874;SDS011;1445;52.600;13.328;2022-07-24T04:29:39;3.05;;;2.45;;
2874;SDS011;1445;52.600;13.328;2022-07-24T04:32:04;3.97;;;2.50;;
2874;SDS011;1445;52.600;13.328;2022-07-24T04:34:30;2.60;;;2.30;;
2874;SDS011;1445;52.600;13.328;2022-07-24T04:36:56;3.08;;;2.13;;
2874;SDS011;1445;52.600;13.328;2022-07-24T04:39:21;3.67;;;2.20;;
2874;SDS011;1445;52.600;13.328;2022-07-24T04:41:47;3.65;;;2.00;;
2874;SDS011;1445;52.600;13.328;2022-07-24T04:44:12;2.42;;;1.90;;
2874;SDS011;1445;52.600;13.328;2022-07-24T04:46:38;3.70;;;2.00;;
2874;SDS011;1445;52.600;13.328;2022-07-24T04:49:04;4.50;;;2.00;;
2874;SDS011;1445;52.600;13.328;2022-07-24T04:51:29;2.40;;;2.05;;
2874;SDS011;1445;52.600;13.328;2022-07-24T04:53:55;3.63;;;2.00;;
2874;SDS011;1445;52.600;13.328;2022-07-24T04:56:20;2.10;;;1.80;;
2874;SDS011;1445;52.600;13.328;2022-07-24T04:58:46;1.90;;;1.70;;
2874;SDS011;1445;52.600;13.328;2022-07-24T05:01:13;2.40;;;1.83;;
2874;SDS011;1445;52.600;13.328;2022-07-24T05:03:38;2.60;;;1.95;;
2874;SDS011;1445;52.600;13.328;2022-07-24T05:06:04;2.22;;;1.80;;
2874;SDS011;1445;52.600;13.328;2022-07-24T05:08:30;3.88;;;1.90;;
2874;SDS011;1445;52.600;13.328;2022-07-24T05:10:56;3.17;;;2.17;;
2874;SDS011;1445;52.600;13.328;2022-07-24T05:13:21;5.07;;;1.73;;
2874;SDS011;1445;52.600;13.328;2022-07-24T05:15:47;2.85;;;1.60;;
2874;SDS011;1445;52.600;13.328;2022-07-24T05:18:12;2.47;;;1.70;;
2874;SDS011;1445;52.600;13.328;2022-07-24T05:20:38;2.40;;;1.83;;
2874;SDS011;1445;52.600;13.328;2022-07-24T05:23:04;2.45;;;1.60;;
2874;SDS011;1445;52.600;13.328;2022-07-24T05:25:29;2.17;;;1.65;;
2874;SDS011;1445;52.600;13.328;2022-07-24T05:27:55;1.95;;;1.40;;
2874;SDS011;1445;52.600;13.328;2022-07-24T05:30:20;2.53;;;1.70;;
2874;SDS011;1445;52.600;13.328;2022-07-24T05:32:46;3.08;;;2.05;;
2874;SDS011;1445;52.600;13.328;2022-07-24T05:35:12;2.90;;;1.60;;
2874;SDS011;1445;52.600;13.328;2022-07-24T05:37:37;1.80;;;1.55;;
2874;SDS011;1445;52.600;13.328;2022-07-24T05:40:03;2.35;;;1.48;;
2874;SDS011;1445;52.600;13.328;2022-07-24T05:42:29;2.53;;;1.67;;
2874;SDS011;1445;52.600;13.328;2022-07-24T05:44:55;2.30;;;1.67;;
2874;SDS011;1445;52.600;13.328;2022-07-24T05:47:21;2.30;;;1.50;;
2874;SDS011;1445;52.600;13.328;2022-07-24T05:49:46;3.22;;;1.60;;
2874;SDS011;1445;52.600;13.328;2022-07-24T05:52:12;2.58;;;1.88;;
2874;SDS011;1445;52.600;13.328;2022-07-24T05:54:37;3.65;;;1.70;;
2874;SDS011;1445;52.600;13.328;2022-07-24T05:57:03;1.75;;;1.38;;
2874;SDS011;1445;52.600;13.328;2022-07-24T05:59:28;1.95;;;1.45;;
2874;SDS011;1445;52.600;13.328;2022-07-24T06:01:54;1.98;;;1.38;;
2874;SDS011;1445;52.600;13.328;2022-07-24T06:04:20;2.28;;;1.30;;
2874;SDS011;1445;52.600;13.328;2022-07-24T06:06:45;2.00;;;1.50;;
2874;SDS011;1445;52.600;13.328;2022-07-24T06:09:11;3.55;;;1.80;;
2874;SDS011;1445;52.600;13.328;2022-07-24T06:11:36;2.20;;;1.50;;
2874;SDS011;1445;52.600;13.328;2022-07-24T06:14:02;1.95;;;1.45;;
2874;SDS011;1445;52.600;13.328;2022-07-24T06:16:28;2.10;;;1.25;;
2874;SDS011;1445;52.600;13.328;2022-07-24T06:19:01;2.60;;;1.60;;
2874;SDS011;1445;52.600;13.328;2022-07-24T06:21:58;2.97;;;1.50;;
2874;SDS011;1445;52.600;13.328;2022-07-24T06:24:24;1.27;;;1.05;;
2874;SDS011;1445;52.600;13.328;2022-07-24T06:26:49;1.35;;;1.25;;
2874;SDS011;1445;52.600;13.328;2022-07-24T06:29:15;2.13;;;1.50;;
2874;SDS011;1445;52.600;13.328;2022-07-24T06:31:40;1.85;;;1.40;;
2874;SDS011;1445;52.600;13.328;2022-07-24T06:34:06;1.63;;;1.10;;
2874;SDS011;1445;52.600;13.328;2022-07-24T06:36:31;2.55;;;1.20;;
2874;SDS011;1445;52.600;13.328;2022-07-24T06:38:57;1.83;;;1.30;;
2874;SDS011;1445;52.600;13.328;2022-07-24T06:41:26;2.00;;;1.20;;
2874;SDS011;1445;52.600;13.328;2022-07-24T06:43:51;1.88;;;1.40;;
2874;SDS011;1445;52.600;13.328;2022-07-24T06:46:29;3.22;;;1.30;;
2874;SDS011;1445;52.600;13.328;2022-07-24T06:49:41;2.85;;;1.73;;
2874;SDS011;1445;52.600;13.328;2022-07-24T06:52:06;1.77;;;1.15;;
2874;SDS011;1445;52.600;13.328;2022-07-24T06:54:32;2.10;;;1.38;;
2874;SDS011;1445;52.600;13.328;2022-07-24T06:56:57;2.17;;;1.33;;
2874;SDS011;1445;52.600;13.328;2022-07-24T06:59:23;2.47;;;1.50;;
2874;SDS011;1445;52.600;13.328;2022-07-24T07:01:48;1.85;;;1.23;;
2874;SDS011;1445;52.600;13.328;2022-07-24T07:04:14;2.53;;;1.20;;
2874;SDS011;1445;52.600;13.328;2022-07-24T07:06:39;1.40;;;1.30;;
2874;SDS011;1445;52.600;13.328;2022-07-24T07:09:05;2.10;;;1.40;;
2874;SDS011;1445;52.600;13.328;2022-07-24T07:11:30;2.63;;;1.40;;
2874;SDS011;1445;52.600;13.328;2022-07-24T07:13:56;2.20;;;1.48;;
2874;SDS011;1445;52.600;13.328;2022-07-24T07:16:21;3.20;;;1.50;;
2874;SDS011;1445;52.600;13.328;2022-07-24T07:18:47;3.05;;;1.35;;
2874;SDS011;1445;52.600;13.328;2022-07-24T07:21:13;3.00;;;1.60;;
2874;SDS011;1445;52.600;13.328;2022-07-24T07:23:38;1.40;;;1.30;;
2874;SDS011;1445;52.600;13.328;2022-07-24T07:26:04;2.97;;;1.33;;
2874;SDS011;1445;52.600;13.328;2022-07-24T07:28:32;1.38;;;1.13;;
2874;SDS011;1445;52.600;13.328;2022-07-24T07:30:58;3.45;;;1.70;;
2874;SDS011;1445;52.600;13.328;2022-07-24T07:33:24;2.33;;;1.40;;
2874;SDS011;1445;52.600;13.328;2022-07-24T07:35:51;2.30;;;1.52;;
2874;SDS011;1445;52.600;13.328;2022-07-24T07:38:17;2.63;;;1.20;;
2874;SDS011;1445;52.600;13.328;2022-07-24T07:40:43;3.75;;;1.38;;
2874;SDS011;1445;52.600;13.328;2022-07-24T07:43:09;1.50;;;1.30;;
2874;SDS011;1445;52.600;13.328;2022-07-24T07:45:34;2.65;;;1.30;;
2874;SDS011;1445;52.600;13.328;2022-07-24T07:48:00;1.55;;;1.40;;
2874;SDS011;1445;52.600;13.328;2022-07-24T07:50:26;1.50;;;1.27;;
2874;SDS011;1445;52.600;13.328;2022-07-24T07:52:51;3.47;;;1.70;;
2874;SDS011;1445;52.600;13.328;2022-07-24T07:55:17;2.50;;;1.38;;
2874;SDS011;1445;52.600;13.328;2022-07-24T07:57:43;2.03;;;1.20;;
2874;SDS011;1445;52.600;13.328;2022-07-24T08:00:09;1.38;;;1.25;;
2874;SDS011;1445;52.600;13.328;2022-07-24T08:02:36;3.70;;;1.58;;
2874;SDS011;1445;52.600;13.328;2022-07-24T08:05:01;5.47;;;1.25;;
2874;SDS011;1445;52.600;13.328;2022-07-24T08:07:27;1.88;;;1.00;;
2874;SDS011;1445;52.600;13.328;2022-07-24T08:09:53;1.88;;;1.10;;
2874;SDS011;1445;52.600;13.328;2022-07-24T08:12:18;1.15;;;1.05;;
2874;SDS011;1445;52.600;13.328;2022-07-24T08:14:44;2.03;;;0.93;;
2874;SDS011;1445;52.600;13.328;2022-07-24T08:17:10;1.33;;;1.00;;
2874;SDS011;1445;52.600;13.328;2022-07-24T08:19:37;2.00;;;1.42;;
2874;SDS011;1445;52.600;13.328;2022-07-24T08:22:02;1.88;;;1.00;;
2874;SDS011;1445;52.600;13.328;2022-07-24T08:24:29;2.05;;;1.17;;
2874;SDS011;1445;52.600;13.328;2022-07-24T08:26:57;3.50;;;1.20;;
2874;SDS011;1445;52.600;13.328;2022-07-24T08:29:23;1.67;;;1.23;;
2874;SDS011;1445;52.600;13.328;2022-07-24T08:31:49;2.28;;;1.10;;
2874;SDS011;1445;52.600;13.328;2022-07-24T08:34:15;1.05;;;0.90;;
2874;SDS011;1445;52.600;13.328;2022-07-24T08:36:41;1.60;;;0.95;;
2874;SDS011;1445;52.600;13.328;2022-07-24T08:39:09;1.83;;;1.05;;
2874;SDS011;1445;52.600;13.328;2022-07-24T08:41:35;2.63;;;1.40;;
2874;SDS011;1445;52.600;13.328;2022-07-24T08:44:04;2.33;;;0.90;;
2874;SDS011;1445;52.600;13.328;2022-07-24T08:46:31;1.75;;;0.90;;
2874;SDS011;1445;52.600;13.328;2022-07-24T08:48:57;2.03;;;0.90;;
2874;SDS011;1445;52.600;13.328;2022-07-24T08:51:27;0.88;;;0.77;;
2874;SDS011;1445;52.600;13.328;2022-07-24T08:53:58;1.50;;;1.20;;
2874;SDS011;1445;52.600;13.328;2022-07-24T08:56:25;1.77;;;1.00;;
2874;SDS011;1445;52.600;13.328;2022-07-24T08:58:51;1.10;;;1.00;;
2874;SDS011;1445;52.600;13.328;2022-07-24T09:01:16;0.90;;;0.90;;
2874;SDS011;1445;52.600;13.328;2022-07-24T09:03:42;1.13;;;0.90;;
2874;SDS011;1445;52.600;13.328;2022-07-24T09:06:10;1.88;;;1.00;;
2874;SDS011;1445;52.600;13.328;2022-07-24T09:08:58;1.15;;;0.80;;
2874;SDS011;1445;52.600;13.328;2022-07-24T09:11:28;1.13;;;0.85;;
2874;SDS011;1445;52.600;13.328;2022-07-24T09:13:59;1.27;;;1.05;;
2874;SDS011;1445;52.600;13.328;2022-07-24T09:16:45;1.60;;;1.00;;
2874;SDS011;1445;52.600;13.328;2022-07-24T09:19:12;2.05;;;0.90;;
2874;SDS011;1445;52.600;13.328;2022-07-24T09:21:39;1.73;;;1.10;;
2874;SDS011;1445;52.600;13.328;2022-07-24T09:26:51;1.73;;;0.95;;
2874;SDS011;1445;52.600;13.328;2022-07-24T09:29:23;1.20;;;1.08;;
2874;SDS011;1445;52.600;13.328;2022-07-24T09:31:57;1.35;;;1.00;;
2874;SDS011;1445;52.600;13.328;2022-07-24T09:34:25;1.13;;;0.82;;
2874;SDS011;1445;52.600;13.328;2022-07-24T09:37:05;1.70;;;1.45;;
2874;SDS011;1445;52.600;13.328;2022-07-24T09:39:32;1.10;;;0.80;;
2874;SDS011;1445;52.600;13.328;2022-07-24T09:42:00;1.30;;;0.90;;
2874;SDS011;1445;52.600;13.328;2022-07-24T09:44:29;2.20;;;1.40;;
2874;SDS011;1445;52.600;13.328;2022-07-24T09:46:59;1.63;;;1.00;;
2874;SDS011;1445;52.600;13.328;2022-07-24T09:49:28;1.48;;;1.00;;
2874;SDS011;1445;52.600;13.328;2022-07-24T09:54:46;1.08;;;0.90;;
2874;SDS011;1445;52.600;13.328;2022-07-24T09:57:21;1.17;;;1.00;;
2874;SDS011;1445;52.600;13.328;2022-07-24T09:59:51;1.98;;;1.20;;
2874;SDS011;1445;52.600;13.328;2022-07-24T10:02:20;1.35;;;1.10;;
2874;SDS011;1445;52.600;13.328;2022-07-24T10:04:48;1.77;;;0.95;;
2874;SDS011;1445;52.600;13.328;2022-07-24T10:07:16;1.80;;;1.13;;
2874;SDS011;1445;52.600;13.328;2022-07-24T10:09:45;2.78;;;1.20;;
2874;SDS011;1445;52.600;13.328;2022-07-24T10:12:13;1.30;;;0.90;;
2874;SDS011;1445;52.600;13.328;2022-07-24T10:14:45;4.25;;;1.10;;
2874;SDS011;1445;52.600;13.328;2022-07-24T10:17:13;1.50;;;1.40;;
2874;SDS011;1445;52.600;13.328;2022-07-24T10:22:18;1.20;;;1.10;;
2874;SDS011;1445;52.600;13.328;2022-07-24T10:27:39;2.10;;;1.00;;
2874;SDS011;1445;52.600;13.328;2022-07-24T10:30:08;1.52;;;1.05;;
2874;SDS011;1445;52.600;13.328;2022-07-24T10:32:35;1.30;;;1.20;;
2874;SDS011;1445;52.600;13.328;2022-07-24T10:35:11;1.55;;;1.17;;
2874;SDS011;1445;52.600;13.328;2022-07-24T10:37:52;2.03;;;1.17;;
2874;SDS011;1445;52.600;13.328;2022-07-24T10:53:26;3.63;;;1.50;;
2874;SDS011;1445;52.600;13.328;2022-07-24T10:56:16;1.50;;;1.13;;
2874;SDS011;1445;52.600;13.328;2022-07-24T10:59:14;5.00;;;1.42;;
2874;SDS011;1445;52.600;13.328;2022-07-24T11:01:40;1.90;;;1.30;;
2874;SDS011;1445;52.600;13.328;2022-07-24T11:06:45;1.10;;;1.00;;
2874;SDS011;1445;52.600;13.328;2022-07-24T11:09:11;1.35;;;1.25;;
2874;SDS011;1445;52.600;13.328;2022-07-24T11:14:18;1.40;;;1.17;;
2874;SDS011;1445;52.600;13.328;2022-07-24T11:20:00;1.48;;;1.30;;
2874;SDS011;1445;52.600;13.328;2022-07-24T11:25:08;3.40;;;1.30;;
2874;SDS011;1445;52.600;13.328;2022-07-24T11:27:50;1.25;;;1.15;;
2874;SDS011;1445;52.600;13.328;2022-07-24T11:30:21;1.40;;;1.30;;
2874;SDS011;1445;52.600;13.328;2022-07-24T11:32:48;1.90;;;1.20;;
2874;SDS011;1445;52.600;13.328;2022-07-24T11:35:14;3.00;;;1.63;;
2874;SDS011;1445;52.600;13.328;2022-07-24T11:37:42;1.77;;;1.20;;
2874;SDS011;1445;52.600;13.328;2022-07-24T11:40:08;2.45;;;1.58;;
2874;SDS011;1445;52.600;13.328;2022-07-24T11:42:38;2.55;;;1.40;;
2874;SDS011;1445;52.600;13.328;2022-07-24T11:45:04;1.83;;;1.48;;
2874;SDS011;1445;52.600;13.328;2022-07-24T11:47:30;2.33;;;1.40;;
2874;SDS011;1445;52.600;13.328;2022-07-24T11:49:57;1.67;;;1.38;;
2874;SDS011;1445;52.600;13.328;2022-07-24T11:52:27;3.75;;;1.20;;
2874;SDS011;1445;52.600;13.328;2022-07-24T11:55:02;1.77;;;1.40;;
2874;SDS011;1445;52.600;13.328;2022-07-24T11:57:32;1.98;;;1.23;;
2874;SDS011;1445;52.600;13.328;2022-07-24T12:00:00;2.13;;;1.40;;
2874;SDS011;1445;52.600;13.328;2022-07-24T12:02:26;1.80;;;1.20;;
2874;SDS011;1445;52.600;13.328;2022-07-24T12:04:52;1.48;;;1.35;;
2874;SDS011;1445;52.600;13.328;2022-07-24T12:07:19;1.77;;;1.30;;
2874;SDS011;1445;52.600;13.328;2022-07-24T12:09:53;1.70;;;1.30;;
2874;SDS011;1445;52.600;13.328;2022-07-24T12:12:26;1.30;;;1.13;;
2874;SDS011;1445;52.600;13.328;2022-07-24T12:15:09;1.85;;;1.50;;
2874;SDS011;1445;52.600;13.328;2022-07-24T12:20:21;1.83;;;1.50;;
2874;SDS011;1445;52.600;13.328;2022-07-24T12:22:52;1.52;;;1.20;;
2874;SDS011;1445;52.600;13.328;2022-07-24T12:25:18;1.88;;;1.30;;
2874;SDS011;1445;52.600;13.328;2022-07-24T12:27:45;1.90;;;1.35;;
2874;SDS011;1445;52.600;13.328;2022-07-24T12:38:32;1.73;;;1.35;;
2874;SDS011;1445;52.600;13.328;2022-07-24T12:41:09;1.50;;;1.40;;
2874;SDS011;1445;52.600;13.328;2022-07-24T12:49:04;1.55;;;1.30;;
2874;SDS011;1445;52.600;13.328;2022-07-24T12:56:55;2.53;;;1.40;;
2874;SDS011;1445;52.600;13.328;2022-07-24T13:01:57;1.80;;;1.27;;
2874;SDS011;1445;52.600;13.328;2022-07-24T13:04:41;1.63;;;1.23;;
2874;SDS011;1445;52.600;13.328;2022-07-24T13:07:08;1.40;;;1.30;;
2874;SDS011;1445;52.600;13.328;2022-07-24T13:09:34;1.65;;;1.35;;
2874;SDS011;1445;52.600;13.328;2022-07-24T13:12:00;2.88;;;1.40;;
2874;SDS011;1445;52.600;13.328;2022-07-24T13:14:26;2.10;;;1.60;;
2874;SDS011;1445;52.600;13.328;2022-07-24T13:16:54;1.73;;;1.30;;
2874;SDS011;1445;52.600;13.328;2022-07-24T13:19:20;2.78;;;1.58;;
2874;SDS011;1445;52.600;13.328;2022-07-24T13:21:47;1.55;;;1.40;;
2874;SDS011;1445;52.600;13.328;2022-07-24T13:24:13;1.77;;;1.40;;
2874;SDS011;1445;52.600;13.328;2022-07-24T13:26:41;1.35;;;1.25;;
2874;SDS011;1445;52.600;13.328;2022-07-24T13:29:08;2.00;;;1.45;;
2874;SDS011;1445;52.600;13.328;2022-07-24T13:31:34;2.33;;;1.45;;
2874;SDS011;1445;52.600;13.328;2022-07-24T13:34:00;2.30;;;1.67;;
2874;SDS011;1445;52.600;13.328;2022-07-24T13:36:26;1.63;;;1.40;;
2874;SDS011;1445;52.600;13.328;2022-07-24T13:38:52;2.20;;;1.33;;
2874;SDS011;1445;52.600;13.328;2022-07-24T13:41:18;2.13;;;1.50;;
2874;SDS011;1445;52.600;13.328;2022-07-24T13:43:44;1.98;;;1.70;;
2874;SDS011;1445;52.600;13.328;2022-07-24T13:46:10;2.10;;;1.50;;
2874;SDS011;1445;52.600;13.328;2022-07-24T13:48:37;2.17;;;1.40;;
2874;SDS011;1445;52.600;13.328;2022-07-24T13:51:03;1.85;;;1.48;;
2874;SDS011;1445;52.600;13.328;2022-07-24T13:53:29;1.60;;;1.45;;
2874;SDS011;1445;52.600;13.328;2022-07-24T13:55:54;2.85;;;1.42;;
2874;SDS011;1445;52.600;13.328;2022-07-24T13:58:20;2.08;;;1.40;;
2874;SDS011;1445;52.600;13.328;2022-07-24T14:00:45;1.95;;;1.60;;
2874;SDS011;1445;52.600;13.328;2022-07-24T14:03:11;2.67;;;1.55;;
2874;SDS011;1445;52.600;13.328;2022-07-24T14:05:36;2.10;;;1.90;;
2874;SDS011;1445;52.600;13.328;2022-07-24T14:08:02;2.85;;;1.52;;
2874;SDS011;1445;52.600;13.328;2022-07-24T14:10:28;2.08;;;1.40;;
2874;SDS011;1445;52.600;13.328;2022-07-24T14:12:54;1.88;;;1.42;;
2874;SDS011;1445;52.600;13.328;2022-07-24T14:15:19;1.58;;;1.40;;
2874;SDS011;1445;52.600;13.328;2022-07-24T14:17:45;1.85;;;1.50;;
2874;SDS011;1445;52.600;13.328;2022-07-24T14:20:11;2.28;;;1.42;;
2874;SDS011;1445;52.600;13.328;2022-07-24T14:22:37;2.10;;;1.35;;
2874;SDS011;1445;52.600;13.328;2022-07-24T14:25:05;1.42;;;1.23;;
2874;SDS011;1445;52.600;13.328;2022-07-24T14:27:32;1.67;;;1.30;;
2874;SDS011;1445;52.600;13.328;2022-07-24T14:29:57;2.03;;;1.58;;
2874;SDS011;1445;52.600;13.328;2022-07-24T14:32:23;5.03;;;1.77;;
2874;SDS011;1445;52.600;13.328;2022-07-24T14:34:49;2.25;;;1.40;;
2874;SDS011;1445;52.600;13.328;2022-07-24T14:37:14;3.08;;;1.60;;
2874;SDS011;1445;52.600;13.328;2022-07-24T14:39:40;3.28;;;1.67;;
2874;SDS011;1445;52.600;13.328;2022-07-24T14:42:06;2.22;;;1.40;;
2874;SDS011;1445;52.600;13.328;2022-07-24T14:44:31;1.83;;;1.50;;
2874;SDS011;1445;52.600;13.328;2022-07-24T14:46:57;3.15;;;1.48;;
2874;SDS011;1445;52.600;13.328;2022-07-24T14:49:24;2.20;;;1.42;;
2874;SDS011;1445;52.600;13.328;2022-07-24T14:51:49;1.90;;;1.40;;
2874;SDS011;1445;52.600;13.328;2022-07-24T14:54:15;1.52;;;1.42;;
2874;SDS011;1445;52.600;13.328;2022-07-24T14:56:41;2.08;;;1.40;;
2874;SDS011;1445;52.600;13.328;2022-07-24T14:59:07;3.05;;;1.45;;
2874;SDS011;1445;52.600;13.328;2022-07-24T15:01:33;1.83;;;1.52;;
2874;SDS011;1445;52.600;13.328;2022-07-24T15:03:58;3.55;;;1.67;;
2874;SDS011;1445;52.600;13.328;2022-07-24T15:06:26;1.50;;;1.40;;
2874;SDS011;1445;52.600;13.328;2022-07-24T15:08:52;2.95;;;1.67;;
2874;SDS011;1445;52.600;13.328;2022-07-24T15:11:18;2.33;;;1.52;;
2874;SDS011;1445;52.600;13.328;2022-07-24T15:13:46;2.53;;;1.45;;
2874;SDS011;1445;52.600;13.328;2022-07-24T15:16:13;2.53;;;1.58;;
2874;SDS011;1445;52.600;13.328;2022-07-24T15:18:38;1.50;;;1.35;;
2874;SDS011;1445;52.600;13.328;2022-07-24T15:21:04;1.40;;;1.23;;
2874;SDS011;1445;52.600;13.328;2022-07-24T15:23:30;1.88;;;1.33;;
2874;SDS011;1445;52.600;13.328;2022-07-24T15:25:55;1.80;;;1.30;;
2874;SDS011;1445;52.600;13.328;2022-07-24T15:28:21;1.70;;;1.40;;
2874;SDS011;1445;52.600;13.328;2022-07-24T15:30:46;1.90;;;1.40;;
2874;SDS011;1445;52.600;13.328;2022-07-24T15:33:12;2.88;;;1.42;;
2874;SDS011;1445;52.600;13.328;2022-07-24T15:35:37;2.40;;;1.60;;
2874;SDS011;1445;52.600;13.328;2022-07-24T15:38:03;2.83;;;1.58;;
2874;SDS011;1445;52.600;13.328;2022-07-24T15:40:29;3.00;;;1.55;;
2874;SDS011;1445;52.600;13.328;2022-07-24T15:42:56;1.30;;;1.20;;
2874;SDS011;1445;52.600;13.328;2022-07-24T15:45:23;1.50;;;1.40;;
2874;SDS011;1445;52.600;13.328;2022-07-24T15:47:49;1.65;;;1.50;;
2874;SDS011;1445;52.600;13.328;2022-07-24T15:50:16;1.60;;;1.50;;
2874;SDS011;1445;52.600;13.328;2022-07-24T15:52:42;1.50;;;1.40;;
2874;SDS011;1445;52.600;13.328;2022-07-24T15:55:08;1.40;;;1.30;;
2874;SDS011;1445;52.600;13.328;2022-07-24T15:57:34;1.77;;;1.60;;
2874;SDS011;1445;52.600;13.328;2022-07-24T15:59:59;1.92;;;1.33;;